sensor_id;sensor_type;location;lat;lon;timestamp;temperature;humidity
24408;DHT22;12542;50.924;4.516;2023-07-29T00:01:56;20.60;99.90
24408;DHT22;12542;50.924;4.516;2023-07-29T00:04:21;20.50;99.90
24408;DHT22;12542;50.924;4.516;2023-07-29T00:06:47;20.50;99.90
24408;DHT22;12542;50.924;4.516;2023-07-29T00:09:13;20.40;99.90
24408;DHT22;12542;50.924;4.516;2023-07-29T00:11:38;20.40;99.90
24408;DHT22;12542;50.924;4.516;2023-07-29T00:14:04;20.40;99.90
24408;DHT22;12542;50.924;4.516;2023-07-29T00:16:30;20.20;99.90
24408;DHT22;12542;50.924;4.516;2023-07-29T00:18:55;20.30;99.90
24408;DHT22;12542;50.924;4.516;2023-07-29T00:21:21;20.20;99.90
24408;DHT22;12542;50.924;4.516;2023-07-29T00:23:47;20.10;99.90
24408;DHT22;12542;50.924;4.516;2023-07-29T00:26:12;20.10;99.90
24408;DHT22;12542;50.924;4.516;2023-07-29T00:28:38;20.10;99.90
24408;DHT22;12542;50.924;4.516;2023-07-29T00:31:04;20.10;99.90
24408;DHT22;12542;50.924;4.516;2023-07-29T00:33:29;20.10;99.90
24408;DHT22;12542;50.924;4.516;2023-07-29T00:35:55;20.00;99.90
24408;DHT22;12542;50.924;4.516;2023-07-29T00:38:21;19.90;99.90
24408;DHT22;12542;50.924;4.516;2023-07-29T00:40:46;19.90;99.90
24408;DHT22;12542;50.924;4.516;2023-07-29T00:43:12;19.90;99.90
24408;DHT22;12542;50.924;4.516;2023-07-29T00:45:38;19.80;99.90
24408;DHT22;12542;50.924;4.516;2023-07-29T00:48:04;19.70;99.90
24408;DHT22;12542;50.924;4.516;2023-07-29T00:50:31;19.60;99.90
24408;DHT22;12542;50.924;4.516;2023-07-29T00:53:00;19.50;99.90
24408;DHT22;12542;50.924;4.516;2023-07-29T00:55:26;19.50;99.90
24408;DHT22;12542;50.924;4.516;2023-07-29T00:57:52;19.50;99.90
24408;DHT22;12542;50.924;4.516;2023-07-29T01:00:20;19.40;99.90
24408;DHT22;12542;50.924;4.516;2023-07-29T01:02:47;19.50;99.90
24408;DHT22;12542;50.924;4.516;2023-07-29T01:05:15;19.40;99.90
24408;DHT22;12542;50.924;4.516;2023-07-29T01:10:39;19.30;99.90
24408;DHT22;12542;50.924;4.516;2023-07-29T01:13:14;19.30;99.90
24408;DHT22;12542;50.924;4.516;2023-07-29T01:15:58;19.30;99.90
24408;DHT22;12542;50.924;4.516;2023-07-29T01:18:26;19.30;99.90
24408;DHT22;12542;50.924;4.516;2023-07-29T01:20:54;19.20;99.90
24408;DHT22;12542;50.924;4.516;2023-07-29T01:23:25;19.10;99.90
24408;DHT22;12542;50.924;4.516;2023-07-29T01:25:51;19.10;99.90
24408;DHT22;12542;50.924;4.516;2023-07-29T01:28:17;19.10;99.90
24408;DHT22;12542;50.924;4.516;2023-07-29T01:30:43;19.10;99.90
24408;DHT22;12542;50.924;4.516;2023-07-29T01:33:18;19.20;99.90
24408;DHT22;12542;50.924;4.516;2023-07-29T01:35:48;19.20;99.90
24408;DHT22;12542;50.924;4.516;2023-07-29T01:38:18;19.20;99.90
24408;DHT22;12542;50.924;4.516;2023-07-29T01:40:48;19.10;99.90
24408;DHT22;12542;50.924;4.516;2023-07-29T01:43:14;19.10;99.90
24408;DHT22;12542;50.924;4.516;2023-07-29T01:45:40;19.10;99.90
24408;DHT22;12542;50.924;4.516;2023-07-29T01:48:07;19.10;99.90
24408;DHT22;12542;50.924;4.516;2023-07-29T01:50:33;19.10;99.90
24408;DHT22;12542;50.924;4.516;2023-07-29T01:52:59;19.10;99.90
24408;DHT22;12542;50.924;4.516;2023-07-29T01:55:25;19.10;99.90
24408;DHT22;12542;50.924;4.516;2023-07-29T01:57:51;19.10;99.90
24408;DHT22;12542;50.924;4.516;2023-07-29T02:00:18;19.10;99.90
24408;DHT22;12542;50.924;4.516;2023-07-29T02:02:44;19.00;99.90
24408;DHT22;12542;50.924;4.516;2023-07-29T02:05:10;19.00;99.90
24408;DHT22;12542;50.924;4.516;2023-07-29T02:07:36;19.00;99.90
24408;DHT22;12542;50.924;4.516;2023-07-29T02:10:02;18.90;99.90
24408;DHT22;12542;50.924;4.516;2023-07-29T02:12:27;19.00;99.90
24408;DHT22;12542;50.924;4.516;2023-07-29T02:14:53;19.00;99.90
24408;DHT22;12542;50.924;4.516;2023-07-29T02:17:19;19.00;99.90
24408;DHT22;12542;50.924;4.516;2023-07-29T02:19:44;19.00;99.90
24408;DHT22;12542;50.924;4.516;2023-07-29T02:22:13;19.00;99.90
24408;DHT22;12542;50.924;4.516;2023-07-29T02:24:42;19.00;99.90
24408;DHT22;12542;50.924;4.516;2023-07-29T02:27:07;19.00;99.90
24408;DHT22;12542;50.924;4.516;2023-07-29T02:29:33;19.10;99.90
24408;DHT22;12542;50.924;4.516;2023-07-29T02:32:02;19.10;99.90
24408;DHT22;12542;50.924;4.516;2023-07-29T02:34:29;19.00;99.90
24408;DHT22;12542;50.924;4.516;2023-07-29T02:36:55;19.00;99.90
24408;DHT22;12542;50.924;4.516;2023-07-29T02:39:20;19.00;99.90
24408;DHT22;12542;50.924;4.516;2023-07-29T02:41:46;19.00;99.90
24408;DHT22;12542;50.924;4.516;2023-07-29T02:44:12;19.00;99.90
24408;DHT22;12542;50.924;4.516;2023-07-29T02:46:37;19.00;99.90
24408;DHT22;12542;50.924;4.516;2023-07-29T02:49:03;19.00;99.90
24408;DHT22;12542;50.924;4.516;2023-07-29T02:51:32;19.00;99.90
24408;DHT22;12542;50.924;4.516;2023-07-29T02:53:58;19.00;99.90
24408;DHT22;12542;50.924;4.516;2023-07-29T02:56:23;19.00;99.90
24408;DHT22;12542;50.924;4.516;2023-07-29T02:58:51;18.90;99.90
24408;DHT22;12542;50.924;4.516;2023-07-29T03:01:17;18.90;99.90
24408;DHT22;12542;50.924;4.516;2023-07-29T03:03:44;19.00;99.90
24408;DHT22;12542;50.924;4.516;2023-07-29T03:06:12;19.00;99.90
24408;DHT22;12542;50.924;4.516;2023-07-29T03:08:38;19.00;99.90
24408;DHT22;12542;50.924;4.516;2023-07-29T03:11:15;19.00;99.90
24408;DHT22;12542;50.924;4.516;2023-07-29T03:13:41;19.00;99.90
24408;DHT22;12542;50.924;4.516;2023-07-29T03:16:13;18.90;99.90
24408;DHT22;12542;50.924;4.516;2023-07-29T03:18:43;18.90;99.90
24408;DHT22;12542;50.924;4.516;2023-07-29T03:21:10;19.00;99.90
24408;DHT22;12542;50.924;4.516;2023-07-29T03:23:36;18.90;99.90
24408;DHT22;12542;50.924;4.516;2023-07-29T03:26:04;18.80;99.90
24408;DHT22;12542;50.924;4.516;2023-07-29T03:28:36;18.80;99.90
24408;DHT22;12542;50.924;4.516;2023-07-29T03:31:02;18.80;99.90
24408;DHT22;12542;50.924;4.516;2023-07-29T03:33:28;18.80;99.90
24408;DHT22;12542;50.924;4.516;2023-07-29T03:35:54;18.80;99.90
24408;DHT22;12542;50.924;4.516;2023-07-29T03:38:20;18.80;99.90
24408;DHT22;12542;50.924;4.516;2023-07-29T03:40:45;18.80;99.90
24408;DHT22;12542;50.924;4.516;2023-07-29T03:43:14;18.80;99.90
24408;DHT22;12542;50.924;4.516;2023-07-29T03:45:40;18.80;99.90
24408;DHT22;12542;50.924;4.516;2023-07-29T03:48:06;18.80;99.90
24408;DHT22;12542;50.924;4.516;2023-07-29T03:50:34;18.80;99.90
24408;DHT22;12542;50.924;4.516;2023-07-29T03:53:02;18.90;99.90
24408;DHT22;12542;50.924;4.516;2023-07-29T03:55:31;18.70;99.90
24408;DHT22;12542;50.924;4.516;2023-07-29T03:57:57;18.70;99.90
24408;DHT22;12542;50.924;4.516;2023-07-29T04:00:26;18.70;99.90
24408;DHT22;12542;50.924;4.516;2023-07-29T04:02:52;18.70;99.90
24408;DHT22;12542;50.924;4.516;2023-07-29T04:05:18;18.70;99.90
24408;DHT22;12542;50.924;4.516;2023-07-29T04:07:44;18.70;99.90
24408;DHT22;12542;50.924;4.516;2023-07-29T04:10:10;18.70;99.90
24408;DHT22;12542;50.924;4.516;2023-07-29T04:12:36;18.80;99.90
24408;DHT22;12542;50.924;4.516;2023-07-29T04:15:02;18.70;99.90
24408;DHT22;12542;50.924;4.516;2023-07-29T04:17:28;18.70;99.90
24408;DHT22;12542;50.924;4.516;2023-07-29T04:19:54;18.70;99.90
24408;DHT22;12542;50.924;4.516;2023-07-29T04:22:19;18.80;99.90
24408;DHT22;12542;50.924;4.516;2023-07-29T04:24:46;18.70;99.90
24408;DHT22;12542;50.924;4.516;2023-07-29T04:27:12;18.80;99.90
24408;DHT22;12542;50.924;4.516;2023-07-29T04:29:37;18.70;99.90
24408;DHT22;12542;50.924;4.516;2023-07-29T04:32:04;18.70;99.90
24408;DHT22;12542;50.924;4.516;2023-07-29T04:34:30;18.80;99.90
24408;DHT22;12542;50.924;4.516;2023-07-29T04:36:55;18.70;99.90
24408;DHT22;12542;50.924;4.516;2023-07-29T04:39:21;18.80;99.90
24408;DHT22;12542;50.924;4.516;2023-07-29T04:41:47;18.80;99.90
24408;DHT22;12542;50.924;4.516;2023-07-29T04:44:12;18.80;99.90
24408;DHT22;12542;50.924;4.516;2023-07-29T04:46:38;18.90;99.90
24408;DHT22;12542;50.924;4.516;2023-07-29T04:49:04;18.80;99.90
24408;DHT22;12542;50.924;4.516;2023-07-29T04:51:31;18.80;99.90
24408;DHT22;12542;50.924;4.516;2023-07-29T04:53:58;18.80;99.90
24408;DHT22;12542;50.924;4.516;2023-07-29T04:56:24;18.90;99.90
24408;DHT22;12542;50.924;4.516;2023-07-29T04:58:50;18.70;99.90
24408;DHT22;12542;50.924;4.516;2023-07-29T05:01:15;18.90;99.90
24408;DHT22;12542;50.924;4.516;2023-07-29T05:03:41;19.00;99.90
24408;DHT22;12542;50.924;4.516;2023-07-29T05:06:07;18.90;99.90
24408;DHT22;12542;50.924;4.516;2023-07-29T05:08:32;19.00;99.90
24408;DHT22;12542;50.924;4.516;2023-07-29T05:10:58;19.10;99.90
24408;DHT22;12542;50.924;4.516;2023-07-29T05:13:24;19.20;99.90
24408;DHT22;12542;50.924;4.516;2023-07-29T05:15:50;19.30;99.90
24408;DHT22;12542;50.924;4.516;2023-07-29T05:18:18;19.40;99.90
24408;DHT22;12542;50.924;4.516;2023-07-29T05:20:44;19.70;99.90
24408;DHT22;12542;50.924;4.516;2023-07-29T05:23:10;20.30;99.90
24408;DHT22;12542;50.924;4.516;2023-07-29T05:25:35;21.70;99.90
24408;DHT22;12542;50.924;4.516;2023-07-29T05:28:02;23.60;99.90
24408;DHT22;12542;50.924;4.516;2023-07-29T05:30:28;25.10;99.90
24408;DHT22;12542;50.924;4.516;2023-07-29T05:32:57;25.50;99.90
24408;DHT22;12542;50.924;4.516;2023-07-29T05:35:23;25.00;99.90
24408;DHT22;12542;50.924;4.516;2023-07-29T05:37:48;24.20;99.90
24408;DHT22;12542;50.924;4.516;2023-07-29T05:40:14;24.30;99.90
24408;DHT22;12542;50.924;4.516;2023-07-29T05:42:40;24.00;99.90
24408;DHT22;12542;50.924;4.516;2023-07-29T05:45:06;23.20;99.90
24408;DHT22;12542;50.924;4.516;2023-07-29T05:47:34;22.40;99.90
24408;DHT22;12542;50.924;4.516;2023-07-29T05:50:00;22.10;99.90
24408;DHT22;12542;50.924;4.516;2023-07-29T05:52:33;21.80;99.90
24408;DHT22;12542;50.924;4.516;2023-07-29T05:54:59;21.40;99.90
24408;DHT22;12542;50.924;4.516;2023-07-29T05:57:24;20.90;99.90
24408;DHT22;12542;50.924;4.516;2023-07-29T05:59:50;20.90;99.90
24408;DHT22;12542;50.924;4.516;2023-07-29T06:02:16;21.00;99.90
24408;DHT22;12542;50.924;4.516;2023-07-29T06:04:43;21.00;99.90
24408;DHT22;12542;50.924;4.516;2023-07-29T06:07:08;21.00;99.90
24408;DHT22;12542;50.924;4.516;2023-07-29T06:09:34;20.80;99.90
24408;DHT22;12542;50.924;4.516;2023-07-29T06:12:00;20.90;99.90
24408;DHT22;12542;50.924;4.516;2023-07-29T06:14:25;20.90;99.90
24408;DHT22;12542;50.924;4.516;2023-07-29T06:16:51;20.70;99.90
24408;DHT22;12542;50.924;4.516;2023-07-29T06:19:19;20.70;99.90
24408;DHT22;12542;50.924;4.516;2023-07-29T06:21:45;20.90;99.90
24408;DHT22;12542;50.924;4.516;2023-07-29T06:24:10;21.40;99.90
24408;DHT22;12542;50.924;4.516;2023-07-29T06:26:36;23.20;99.90
24408;DHT22;12542;50.924;4.516;2023-07-29T06:29:04;25.00;99.90
24408;DHT22;12542;50.924;4.516;2023-07-29T06:31:30;25.90;99.90
24408;DHT22;12542;50.924;4.516;2023-07-29T06:34:01;25.60;99.90
24408;DHT22;12542;50.924;4.516;2023-07-29T06:36:27;24.70;99.90
24408;DHT22;12542;50.924;4.516;2023-07-29T06:38:53;23.90;99.90
24408;DHT22;12542;50.924;4.516;2023-07-29T06:41:20;23.30;99.90
24408;DHT22;12542;50.924;4.516;2023-07-29T06:43:45;23.20;99.90
24408;DHT22;12542;50.924;4.516;2023-07-29T06:46:11;23.20;99.90
24408;DHT22;12542;50.924;4.516;2023-07-29T06:48:39;23.00;99.90
24408;DHT22;12542;50.924;4.516;2023-07-29T06:51:05;23.10;99.90
24408;DHT22;12542;50.924;4.516;2023-07-29T06:53:30;23.20;99.90
24408;DHT22;12542;50.924;4.516;2023-07-29T06:55:58;23.20;99.90
24408;DHT22;12542;50.924;4.516;2023-07-29T06:58:24;23.30;99.90
24408;DHT22;12542;50.924;4.516;2023-07-29T07:00:50;23.30;99.90
24408;DHT22;12542;50.924;4.516;2023-07-29T07:03:16;23.30;99.90
24408;DHT22;12542;50.924;4.516;2023-07-29T07:05:41;23.50;99.90
24408;DHT22;12542;50.924;4.516;2023-07-29T07:08:07;23.60;99.90
24408;DHT22;12542;50.924;4.516;2023-07-29T07:10:33;23.70;99.90
24408;DHT22;12542;50.924;4.516;2023-07-29T07:12:59;23.70;99.90
24408;DHT22;12542;50.924;4.516;2023-07-29T07:15:25;23.60;99.90
24408;DHT22;12542;50.924;4.516;2023-07-29T07:17:51;23.60;99.90
24408;DHT22;12542;50.924;4.516;2023-07-29T07:20:17;23.70;99.90
24408;DHT22;12542;50.924;4.516;2023-07-29T07:22:43;23.60;99.90
24408;DHT22;12542;50.924;4.516;2023-07-29T07:25:09;23.60;99.90
24408;DHT22;12542;50.924;4.516;2023-07-29T07:27:35;23.50;99.90
24408;DHT22;12542;50.924;4.516;2023-07-29T07:30:01;23.40;99.90
24408;DHT22;12542;50.924;4.516;2023-07-29T07:32:26;23.10;99.90
24408;DHT22;12542;50.924;4.516;2023-07-29T07:34:52;23.00;99.90
24408;DHT22;12542;50.924;4.516;2023-07-29T07:37:17;22.90;99.90
24408;DHT22;12542;50.924;4.516;2023-07-29T07:39:43;22.80;99.90
24408;DHT22;12542;50.924;4.516;2023-07-29T07:42:11;22.60;99.90
24408;DHT22;12542;50.924;4.516;2023-07-29T07:44:36;22.40;99.90
24408;DHT22;12542;50.924;4.516;2023-07-29T07:47:02;22.20;99.90
24408;DHT22;12542;50.924;4.516;2023-07-29T07:49:28;22.00;99.90
24408;DHT22;12542;50.924;4.516;2023-07-29T07:51:54;22.00;99.90
24408;DHT22;12542;50.924;4.516;2023-07-29T07:54:20;22.00;99.90
24408;DHT22;12542;50.924;4.516;2023-07-29T07:56:46;22.20;99.90
24408;DHT22;12542;50.924;4.516;2023-07-29T07:59:11;22.30;99.90
24408;DHT22;12542;50.924;4.516;2023-07-29T08:01:38;22.60;99.90
24408;DHT22;12542;50.924;4.516;2023-07-29T08:04:05;23.00;99.90
24408;DHT22;12542;50.924;4.516;2023-07-29T08:06:31;23.20;99.90
24408;DHT22;12542;50.924;4.516;2023-07-29T08:08:57;23.80;99.90
24408;DHT22;12542;50.924;4.516;2023-07-29T08:11:23;24.50;99.90
24408;DHT22;12542;50.924;4.516;2023-07-29T08:13:49;24.90;99.90
24408;DHT22;12542;50.924;4.516;2023-07-29T08:16:15;25.50;99.90
24408;DHT22;12542;50.924;4.516;2023-07-29T08:18:40;25.90;99.90
24408;DHT22;12542;50.924;4.516;2023-07-29T08:21:06;25.90;99.90
24408;DHT22;12542;50.924;4.516;2023-07-29T08:23:35;26.40;99.90
24408;DHT22;12542;50.924;4.516;2023-07-29T08:26:03;26.80;99.90
24408;DHT22;12542;50.924;4.516;2023-07-29T08:28:35;27.10;99.90
24408;DHT22;12542;50.924;4.516;2023-07-29T08:31:01;27.10;99.90
24408;DHT22;12542;50.924;4.516;2023-07-29T08:33:27;27.20;99.90
24408;DHT22;12542;50.924;4.516;2023-07-29T08:35:53;27.70;99.90
24408;DHT22;12542;50.924;4.516;2023-07-29T08:38:19;28.00;99.90
24408;DHT22;12542;50.924;4.516;2023-07-29T08:40:59;28.00;99.90
24408;DHT22;12542;50.924;4.516;2023-07-29T08:43:31;28.20;99.90
24408;DHT22;12542;50.924;4.516;2023-07-29T08:45:58;28.20;99.90
24408;DHT22;12542;50.924;4.516;2023-07-29T08:48:36;28.10;99.90
24408;DHT22;12542;50.924;4.516;2023-07-29T08:51:03;28.00;99.90
24408;DHT22;12542;50.924;4.516;2023-07-29T08:53:31;26.80;99.90
24408;DHT22;12542;50.924;4.516;2023-07-29T08:55:59;25.60;99.90
24408;DHT22;12542;50.924;4.516;2023-07-29T08:58:25;26.10;99.90
24408;DHT22;12542;50.924;4.516;2023-07-29T09:00:51;26.20;99.90
24408;DHT22;12542;50.924;4.516;2023-07-29T09:03:17;26.90;99.90
24408;DHT22;12542;50.924;4.516;2023-07-29T09:05:43;27.50;99.90
24408;DHT22;12542;50.924;4.516;2023-07-29T09:08:12;27.40;99.90
24408;DHT22;12542;50.924;4.516;2023-07-29T09:10:38;28.10;99.90
24408;DHT22;12542;50.924;4.516;2023-07-29T09:13:04;27.40;99.90
24408;DHT22;12542;50.924;4.516;2023-07-29T09:15:32;27.50;99.90
24408;DHT22;12542;50.924;4.516;2023-07-29T09:18:12;27.80;99.90
24408;DHT22;12542;50.924;4.516;2023-07-29T09:20:40;27.70;99.90
24408;DHT22;12542;50.924;4.516;2023-07-29T09:23:09;28.00;99.90
24408;DHT22;12542;50.924;4.516;2023-07-29T09:25:38;28.70;99.90
24408;DHT22;12542;50.924;4.516;2023-07-29T09:28:09;28.80;99.90
24408;DHT22;12542;50.924;4.516;2023-07-29T09:30:42;28.60;99.90
24408;DHT22;12542;50.924;4.516;2023-07-29T09:33:09;28.50;99.90
24408;DHT22;12542;50.924;4.516;2023-07-29T09:35:36;28.60;99.90
24408;DHT22;12542;50.924;4.516;2023-07-29T09:38:06;28.50;99.90
24408;DHT22;12542;50.924;4.516;2023-07-29T09:40:39;28.30;99.90
24408;DHT22;12542;50.924;4.516;2023-07-29T09:43:07;27.90;99.90
24408;DHT22;12542;50.924;4.516;2023-07-29T09:45:37;27.50;99.90
24408;DHT22;12542;50.924;4.516;2023-07-29T09:48:05;27.40;99.90
24408;DHT22;12542;50.924;4.516;2023-07-29T09:50:35;27.40;99.90
24408;DHT22;12542;50.924;4.516;2023-07-29T09:53:03;27.10;99.90
24408;DHT22;12542;50.924;4.516;2023-07-29T09:55:29;27.30;99.90
24408;DHT22;12542;50.924;4.516;2023-07-29T09:57:59;27.30;99.90
24408;DHT22;12542;50.924;4.516;2023-07-29T10:00:28;26.90;99.90
24408;DHT22;12542;50.924;4.516;2023-07-29T10:02:54;26.50;99.90
24408;DHT22;12542;50.924;4.516;2023-07-29T10:05:22;26.30;99.90
24408;DHT22;12542;50.924;4.516;2023-07-29T10:07:49;26.40;99.90
24408;DHT22;12542;50.924;4.516;2023-07-29T10:10:18;26.80;99.90
24408;DHT22;12542;50.924;4.516;2023-07-29T10:12:44;26.90;99.90
24408;DHT22;12542;50.924;4.516;2023-07-29T10:15:10;27.10;99.90
24408;DHT22;12542;50.924;4.516;2023-07-29T10:17:37;27.60;99.90
24408;DHT22;12542;50.924;4.516;2023-07-29T10:20:08;28.10;99.90
24408;DHT22;12542;50.924;4.516;2023-07-29T10:22:42;28.80;99.90
24408;DHT22;12542;50.924;4.516;2023-07-29T10:25:16;29.30;99.90
24408;DHT22;12542;50.924;4.516;2023-07-29T10:27:47;29.50;99.90
24408;DHT22;12542;50.924;4.516;2023-07-29T10:30:16;29.80;99.90
24408;DHT22;12542;50.924;4.516;2023-07-29T10:32:42;29.30;99.90
24408;DHT22;12542;50.924;4.516;2023-07-29T10:35:10;29.20;99.90
24408;DHT22;12542;50.924;4.516;2023-07-29T10:37:37;29.20;99.90
24408;DHT22;12542;50.924;4.516;2023-07-29T10:40:06;29.40;99.90
24408;DHT22;12542;50.924;4.516;2023-07-29T10:42:32;28.50;99.90
24408;DHT22;12542;50.924;4.516;2023-07-29T10:44:58;28.50;99.90
24408;DHT22;12542;50.924;4.516;2023-07-29T10:47:25;28.30;99.90
24408;DHT22;12542;50.924;4.516;2023-07-29T10:49:54;27.30;99.90
24408;DHT22;12542;50.924;4.516;2023-07-29T10:52:37;25.90;99.90
24408;DHT22;12542;50.924;4.516;2023-07-29T10:55:26;24.90;99.90
24408;DHT22;12542;50.924;4.516;2023-07-29T10:57:52;23.80;99.90
24408;DHT22;12542;50.924;4.516;2023-07-29T11:00:19;23.20;99.90
24408;DHT22;12542;50.924;4.516;2023-07-29T11:03:00;22.60;99.90
24408;DHT22;12542;50.924;4.516;2023-07-29T11:05:27;22.50;99.90
24408;DHT22;12542;50.924;4.516;2023-07-29T11:08:16;22.50;99.90
24408;DHT22;12542;50.924;4.516;2023-07-29T11:10:43;22.70;99.90
24408;DHT22;12542;50.924;4.516;2023-07-29T11:13:10;22.90;99.90
24408;DHT22;12542;50.924;4.516;2023-07-29T11:15:39;23.20;99.90
24408;DHT22;12542;50.924;4.516;2023-07-29T11:18:05;23.30;99.90
24408;DHT22;12542;50.924;4.516;2023-07-29T11:20:33;23.40;99.90
24408;DHT22;12542;50.924;4.516;2023-07-29T11:23:00;23.50;99.90
24408;DHT22;12542;50.924;4.516;2023-07-29T11:25:28;23.40;99.90
24408;DHT22;12542;50.924;4.516;2023-07-29T11:27:56;23.40;99.90
24408;DHT22;12542;50.924;4.516;2023-07-29T11:30:22;23.40;99.90
24408;DHT22;12542;50.924;4.516;2023-07-29T11:32:55;23.80;99.90
24408;DHT22;12542;50.924;4.516;2023-07-29T11:35:22;23.90;99.90
24408;DHT22;12542;50.924;4.516;2023-07-29T11:37:49;24.10;99.90
24408;DHT22;12542;50.924;4.516;2023-07-29T11:40:20;24.20;99.90
24408;DHT22;12542;50.924;4.516;2023-07-29T11:42:47;24.30;99.90
24408;DHT22;12542;50.924;4.516;2023-07-29T11:45:14;24.60;99.90
24408;DHT22;12542;50.924;4.516;2023-07-29T11:47:40;25.00;99.90
24408;DHT22;12542;50.924;4.516;2023-07-29T11:50:07;25.40;99.90
24408;DHT22;12542;50.924;4.516;2023-07-29T11:52:37;25.60;99.90
24408;DHT22;12542;50.924;4.516;2023-07-29T11:55:05;25.90;99.90
24408;DHT22;12542;50.924;4.516;2023-07-29T11:57:33;25.80;99.90
24408;DHT22;12542;50.924;4.516;2023-07-29T12:00:05;25.80;99.90
24408;DHT22;12542;50.924;4.516;2023-07-29T12:02:32;25.90;99.90
24408;DHT22;12542;50.924;4.516;2023-07-29T12:04:59;25.70;99.90
24408;DHT22;12542;50.924;4.516;2023-07-29T12:07:25;25.80;99.90
24408;DHT22;12542;50.924;4.516;2023-07-29T12:09:51;25.50;99.90
24408;DHT22;12542;50.924;4.516;2023-07-29T12:12:17;25.20;99.90
24408;DHT22;12542;50.924;4.516;2023-07-29T12:14:46;25.10;99.90
24408;DHT22;12542;50.924;4.516;2023-07-29T12:17:12;24.40;99.90
24408;DHT22;12542;50.924;4.516;2023-07-29T12:19:39;24.00;99.90
24408;DHT22;12542;50.924;4.516;2023-07-29T12:22:07;23.50;99.90
24408;DHT22;12542;50.924;4.516;2023-07-29T12:24:35;23.30;99.90
24408;DHT22;12542;50.924;4.516;2023-07-29T12:27:01;22.70;99.90
24408;DHT22;12542;50.924;4.516;2023-07-29T12:29:27;22.30;99.90
24408;DHT22;12542;50.924;4.516;2023-07-29T12:31:58;21.80;99.90
24408;DHT22;12542;50.924;4.516;2023-07-29T12:34:26;21.60;99.90
24408;DHT22;12542;50.924;4.516;2023-07-29T12:36:53;21.50;99.90
24408;DHT22;12542;50.924;4.516;2023-07-29T12:41:51;21.80;99.90
24408;DHT22;12542;50.924;4.516;2023-07-29T12:44:17;22.40;99.90
24408;DHT22;12542;50.924;4.516;2023-07-29T12:46:43;23.10;99.90
24408;DHT22;12542;50.924;4.516;2023-07-29T12:49:09;23.60;99.90
24408;DHT22;12542;50.924;4.516;2023-07-29T12:51:35;24.10;99.90
24408;DHT22;12542;50.924;4.516;2023-07-29T12:54:01;24.30;99.90
24408;DHT22;12542;50.924;4.516;2023-07-29T12:56:28;24.70;99.90
24408;DHT22;12542;50.924;4.516;2023-07-29T12:58:58;25.00;99.90
24408;DHT22;12542;50.924;4.516;2023-07-29T13:01:24;25.20;99.90
24408;DHT22;12542;50.924;4.516;2023-07-29T13:03:50;25.40;99.90
24408;DHT22;12542;50.924;4.516;2023-07-29T13:06:15;25.20;99.90
24408;DHT22;12542;50.924;4.516;2023-07-29T13:08:42;25.30;99.90
24408;DHT22;12542;50.924;4.516;2023-07-29T13:11:10;25.30;99.90
24408;DHT22;12542;50.924;4.516;2023-07-29T13:13:36;25.50;99.90
24408;DHT22;12542;50.924;4.516;2023-07-29T13:16:04;25.60;99.90
24408;DHT22;12542;50.924;4.516;2023-07-29T13:18:29;25.90;99.90
24408;DHT22;12542;50.924;4.516;2023-07-29T13:20:57;26.00;99.90
24408;DHT22;12542;50.924;4.516;2023-07-29T13:23:24;26.20;99.90
24408;DHT22;12542;50.924;4.516;2023-07-29T13:25:50;26.60;99.90
24408;DHT22;12542;50.924;4.516;2023-07-29T13:28:16;26.40;99.90
24408;DHT22;12542;50.924;4.516;2023-07-29T13:30:42;26.30;99.90
24408;DHT22;12542;50.924;4.516;2023-07-29T13:33:08;26.20;99.90
24408;DHT22;12542;50.924;4.516;2023-07-29T13:35:34;26.00;99.90
24408;DHT22;12542;50.924;4.516;2023-07-29T13:38:03;26.00;99.90
24408;DHT22;12542;50.924;4.516;2023-07-29T13:40:28;26.00;99.90
24408;DHT22;12542;50.924;4.516;2023-07-29T13:42:54;26.20;99.90
24408;DHT22;12542;50.924;4.516;2023-07-29T13:45:20;26.20;99.90
24408;DHT22;12542;50.924;4.516;2023-07-29T13:47:47;26.40;99.90
24408;DHT22;12542;50.924;4.516;2023-07-29T13:50:13;26.70;99.90
24408;DHT22;12542;50.924;4.516;2023-07-29T13:52:41;26.60;99.90
24408;DHT22;12542;50.924;4.516;2023-07-29T13:55:07;26.60;99.90
24408;DHT22;12542;50.924;4.516;2023-07-29T13:57:32;26.60;99.90
24408;DHT22;12542;50.924;4.516;2023-07-29T13:59:58;26.70;99.90
24408;DHT22;12542;50.924;4.516;2023-07-29T14:02:24;26.80;99.90
24408;DHT22;12542;50.924;4.516;2023-07-29T14:04:53;26.80;99.90
24408;DHT22;12542;50.924;4.516;2023-07-29T14:07:19;26.80;99.90
24408;DHT22;12542;50.924;4.516;2023-07-29T14:09:45;26.80;99.90
24408;DHT22;12542;50.924;4.516;2023-07-29T14:12:10;26.60;99.90
24408;DHT22;12542;50.924;4.516;2023-07-29T14:14:38;26.40;99.90
24408;DHT22;12542;50.924;4.516;2023-07-29T14:17:04;26.50;99.90
24408;DHT22;12542;50.924;4.516;2023-07-29T14:19:32;26.40;99.90
24408;DHT22;12542;50.924;4.516;2023-07-29T14:21:58;26.40;99.90
24408;DHT22;12542;50.924;4.516;2023-07-29T14:24:24;26.20;99.90
24408;DHT22;12542;50.924;4.516;2023-07-29T14:26:50;26.20;99.90
24408;DHT22;12542;50.924;4.516;2023-07-29T14:29:15;26.30;99.90
24408;DHT22;12542;50.924;4.516;2023-07-29T14:31:41;26.60;99.90
24408;DHT22;12542;50.924;4.516;2023-07-29T14:34:07;26.90;99.90
24408;DHT22;12542;50.924;4.516;2023-07-29T14:36:32;26.70;99.90
24408;DHT22;12542;50.924;4.516;2023-07-29T14:38:58;27.00;99.90
24408;DHT22;12542;50.924;4.516;2023-07-29T14:41:26;26.60;99.90
24408;DHT22;12542;50.924;4.516;2023-07-29T14:43:52;26.70;99.90
24408;DHT22;12542;50.924;4.516;2023-07-29T14:46:18;26.80;99.90
24408;DHT22;12542;50.924;4.516;2023-07-29T14:48:43;26.70;99.90
24408;DHT22;12542;50.924;4.516;2023-07-29T14:51:09;26.60;99.90
24408;DHT22;12542;50.924;4.516;2023-07-29T14:53:35;26.80;99.90
24408;DHT22;12542;50.924;4.516;2023-07-29T14:56:00;27.00;99.90
24408;DHT22;12542;50.924;4.516;2023-07-29T14:58:26;27.10;99.90
24408;DHT22;12542;50.924;4.516;2023-07-29T15:00:52;27.20;99.90
24408;DHT22;12542;50.924;4.516;2023-07-29T15:03:18;27.00;99.90
24408;DHT22;12542;50.924;4.516;2023-07-29T15:05:43;26.40;99.90
24408;DHT22;12542;50.924;4.516;2023-07-29T15:08:09;26.30;99.90
24408;DHT22;12542;50.924;4.516;2023-07-29T15:10:35;25.80;99.90
24408;DHT22;12542;50.924;4.516;2023-07-29T15:13:02;25.80;99.90
24408;DHT22;12542;50.924;4.516;2023-07-29T15:15:27;26.00;99.90
24408;DHT22;12542;50.924;4.516;2023-07-29T15:17:55;25.90;99.90
24408;DHT22;12542;50.924;4.516;2023-07-29T15:20:22;25.90;99.90
24408;DHT22;12542;50.924;4.516;2023-07-29T15:22:48;25.80;99.90
24408;DHT22;12542;50.924;4.516;2023-07-29T15:25:13;26.20;99.90
24408;DHT22;12542;50.924;4.516;2023-07-29T15:27:39;26.20;99.90
24408;DHT22;12542;50.924;4.516;2023-07-29T15:30:06;26.20;99.90
24408;DHT22;12542;50.924;4.516;2023-07-29T15:32:32;26.00;99.90
24408;DHT22;12542;50.924;4.516;2023-07-29T15:34:58;26.20;99.90